sensor_id;sensor_type;location;lat;lon;timestamp;temperature;humidity
37158;DHT22;23050;51.776;22.638;2023-01-06T00:00:17;2.10;99.90
37158;DHT22;23050;51.776;22.638;2023-01-06T00:02:43;2.10;99.90
37158;DHT22;23050;51.776;22.638;2023-01-06T00:05:11;2.10;99.90
37158;DHT22;23050;51.776;22.638;2023-01-06T00:07:37;2.10;99.90
37158;DHT22;23050;51.776;22.638;2023-01-06T00:10:04;2.10;99.90
37158;DHT22;23050;51.776;22.638;2023-01-06T00:12:29;2.10;99.90
37158;DHT22;23050;51.776;22.638;2023-01-06T00:14:56;2.10;99.90
37158;DHT22;23050;51.776;22.638;2023-01-06T00:17:23;2.10;99.90
37158;DHT22;23050;51.776;22.638;2023-01-06T00:19:48;2.00;99.90
37158;DHT22;23050;51.776;22.638;2023-01-06T00:22:14;2.00;99.90
37158;DHT22;23050;51.776;22.638;2023-01-06T00:24:40;2.00;99.90
37158;DHT22;23050;51.776;22.638;2023-01-06T00:27:06;2.00;99.90
37158;DHT22;23050;51.776;22.638;2023-01-06T00:29:31;2.00;99.90
37158;DHT22;23050;51.776;22.638;2023-01-06T00:32:01;1.90;99.90
37158;DHT22;23050;51.776;22.638;2023-01-06T00:34:27;1.90;99.90
37158;DHT22;23050;51.776;22.638;2023-01-06T00:36:52;1.90;99.90
37158;DHT22;23050;51.776;22.638;2023-01-06T00:39:18;1.90;99.90
37158;DHT22;23050;51.776;22.638;2023-01-06T00:41:44;1.80;99.90
37158;DHT22;23050;51.776;22.638;2023-01-06T00:44:37;1.80;99.90
37158;DHT22;23050;51.776;22.638;2023-01-06T00:47:07;1.70;99.90
37158;DHT22;23050;51.776;22.638;2023-01-06T00:49:33;1.70;99.90
37158;DHT22;23050;51.776;22.638;2023-01-06T00:51:59;1.70;99.90
37158;DHT22;23050;51.776;22.638;2023-01-06T00:54:24;1.70;99.90
37158;DHT22;23050;51.776;22.638;2023-01-06T00:56:52;1.70;99.90
37158;DHT22;23050;51.776;22.638;2023-01-06T00:59:20;1.70;99.90
37158;DHT22;23050;51.776;22.638;2023-01-06T01:01:46;1.70;99.90
37158;DHT22;23050;51.776;22.638;2023-01-06T01:04:13;1.70;99.90
37158;DHT22;23050;51.776;22.638;2023-01-06T01:06:40;1.60;99.90
37158;DHT22;23050;51.776;22.638;2023-01-06T01:09:06;1.60;99.90
37158;DHT22;23050;51.776;22.638;2023-01-06T01:11:32;1.70;99.90
37158;DHT22;23050;51.776;22.638;2023-01-06T01:14:18;1.70;99.90
37158;DHT22;23050;51.776;22.638;2023-01-06T01:16:44;1.60;99.90
37158;DHT22;23050;51.776;22.638;2023-01-06T01:19:10;1.60;99.90
37158;DHT22;23050;51.776;22.638;2023-01-06T01:21:36;1.60;99.90
37158;DHT22;23050;51.776;22.638;2023-01-06T01:24:02;1.60;99.90
37158;DHT22;23050;51.776;22.638;2023-01-06T01:26:28;1.60;99.90
37158;DHT22;23050;51.776;22.638;2023-01-06T01:28:54;1.60;99.90
37158;DHT22;23050;51.776;22.638;2023-01-06T01:31:19;1.60;99.90
37158;DHT22;23050;51.776;22.638;2023-01-06T01:33:45;1.60;99.90
37158;DHT22;23050;51.776;22.638;2023-01-06T01:36:14;1.60;99.90
37158;DHT22;23050;51.776;22.638;2023-01-06T01:38:40;1.60;99.90
37158;DHT22;23050;51.776;22.638;2023-01-06T01:41:06;1.60;99.90
37158;DHT22;23050;51.776;22.638;2023-01-06T01:43:45;1.60;99.90
37158;DHT22;23050;51.776;22.638;2023-01-06T01:46:13;1.60;99.90
37158;DHT22;23050;51.776;22.638;2023-01-06T01:48:40;1.50;99.90
37158;DHT22;23050;51.776;22.638;2023-01-06T01:51:08;1.50;99.90
37158;DHT22;23050;51.776;22.638;2023-01-06T01:53:40;1.50;99.90
37158;DHT22;23050;51.776;22.638;2023-01-06T01:56:09;1.40;99.90
37158;DHT22;23050;51.776;22.638;2023-01-06T01:58:41;1.30;99.90
37158;DHT22;23050;51.776;22.638;2023-01-06T02:01:08;1.30;99.90
37158;DHT22;23050;51.776;22.638;2023-01-06T02:03:36;1.30;99.90
37158;DHT22;23050;51.776;22.638;2023-01-06T02:06:04;1.30;99.90
37158;DHT22;23050;51.776;22.638;2023-01-06T02:08:48;1.30;99.90
37158;DHT22;23050;51.776;22.638;2023-01-06T02:11:15;1.20;99.90
37158;DHT22;23050;51.776;22.638;2023-01-06T02:13:43;1.10;99.90
37158;DHT22;23050;51.776;22.638;2023-01-06T02:28:10;1.00;99.90
37158;DHT22;23050;51.776;22.638;2023-01-06T02:40:03;1.00;99.90
37158;DHT22;23050;51.776;22.638;2023-01-06T02:43:27;1.00;99.90
37158;DHT22;23050;51.776;22.638;2023-01-06T02:51:22;1.00;99.90
37158;DHT22;23050;51.776;22.638;2023-01-06T02:54:24;1.00;99.90
37158;DHT22;23050;51.776;22.638;2023-01-06T02:57:11;1.00;99.90
37158;DHT22;23050;51.776;22.638;2023-01-06T02:59:52;1.00;99.90
37158;DHT22;23050;51.776;22.638;2023-01-06T03:02:21;1.00;99.90
37158;DHT22;23050;51.776;22.638;2023-01-06T03:04:49;1.00;99.90
37158;DHT22;23050;51.776;22.638;2023-01-06T03:07:18;1.00;99.90
37158;DHT22;23050;51.776;22.638;2023-01-06T03:09:46;0.90;99.90
37158;DHT22;23050;51.776;22.638;2023-01-06T03:15:23;0.90;99.90
37158;DHT22;23050;51.776;22.638;2023-01-06T03:17:49;0.90;99.90
37158;DHT22;23050;51.776;22.638;2023-01-06T03:20:15;0.90;99.90
37158;DHT22;23050;51.776;22.638;2023-01-06T03:22:41;0.90;99.90
37158;DHT22;23050;51.776;22.638;2023-01-06T03:25:08;0.90;99.90
37158;DHT22;23050;51.776;22.638;2023-01-06T03:27:34;0.90;99.90
37158;DHT22;23050;51.776;22.638;2023-01-06T03:30:01;0.90;99.90
37158;DHT22;23050;51.776;22.638;2023-01-06T03:33:18;0.90;99.90
37158;DHT22;23050;51.776;22.638;2023-01-06T03:35:41;0.90;99.90
37158;DHT22;23050;51.776;22.638;2023-01-06T03:38:31;0.90;99.90
37158;DHT22;23050;51.776;22.638;2023-01-06T03:41:21;0.80;99.90
37158;DHT22;23050;51.776;22.638;2023-01-06T03:43:56;0.80;99.90
37158;DHT22;23050;51.776;22.638;2023-01-06T03:46:41;0.80;99.90
37158;DHT22;23050;51.776;22.638;2023-01-06T03:51:53;0.80;99.90
37158;DHT22;23050;51.776;22.638;2023-01-06T03:54:24;0.80;99.90
37158;DHT22;23050;51.776;22.638;2023-01-06T03:57:02;0.90;99.90
37158;DHT22;23050;51.776;22.638;2023-01-06T03:59:33;0.80;99.90
37158;DHT22;23050;51.776;22.638;2023-01-06T04:02:00;0.80;99.90
37158;DHT22;23050;51.776;22.638;2023-01-06T04:04:26;0.80;99.90
37158;DHT22;23050;51.776;22.638;2023-01-06T04:06:51;0.80;99.90
37158;DHT22;23050;51.776;22.638;2023-01-06T04:09:17;0.80;99.90
37158;DHT22;23050;51.776;22.638;2023-01-06T04:11:42;0.80;99.90
37158;DHT22;23050;51.776;22.638;2023-01-06T04:14:27;0.80;99.90
37158;DHT22;23050;51.776;22.638;2023-01-06T04:16:52;0.80;99.90
37158;DHT22;23050;51.776;22.638;2023-01-06T04:19:18;0.70;99.90
37158;DHT22;23050;51.776;22.638;2023-01-06T04:21:43;0.70;99.90
37158;DHT22;23050;51.776;22.638;2023-01-06T04:24:09;0.70;99.90
37158;DHT22;23050;51.776;22.638;2023-01-06T04:26:35;0.60;99.90
37158;DHT22;23050;51.776;22.638;2023-01-06T04:29:00;0.60;99.90
37158;DHT22;23050;51.776;22.638;2023-01-06T04:31:27;0.60;99.90
37158;DHT22;23050;51.776;22.638;2023-01-06T04:33:52;0.60;99.90
37158;DHT22;23050;51.776;22.638;2023-01-06T04:36:18;0.60;99.90
37158;DHT22;23050;51.776;22.638;2023-01-06T04:38:45;0.50;99.90
37158;DHT22;23050;51.776;22.638;2023-01-06T04:41:10;0.50;99.90
37158;DHT22;23050;51.776;22.638;2023-01-06T04:43:36;0.50;99.90
37158;DHT22;23050;51.776;22.638;2023-01-06T04:46:02;0.50;99.90
37158;DHT22;23050;51.776;22.638;2023-01-06T04:48:27;0.40;99.90
37158;DHT22;23050;51.776;22.638;2023-01-06T04:51:19;0.50;99.90
37158;DHT22;23050;51.776;22.638;2023-01-06T04:53:45;0.40;99.90
37158;DHT22;23050;51.776;22.638;2023-01-06T04:56:12;0.40;99.90
37158;DHT22;23050;51.776;22.638;2023-01-06T04:58:38;0.40;99.90
37158;DHT22;23050;51.776;22.638;2023-01-06T05:01:09;0.40;99.90
37158;DHT22;23050;51.776;22.638;2023-01-06T05:03:37;0.30;99.90
37158;DHT22;23050;51.776;22.638;2023-01-06T05:06:05;0.40;99.90
37158;DHT22;23050;51.776;22.638;2023-01-06T05:08:34;0.40;99.90
37158;DHT22;23050;51.776;22.638;2023-01-06T05:11:09;0.30;99.90
37158;DHT22;23050;51.776;22.638;2023-01-06T05:13:35;0.30;99.90
37158;DHT22;23050;51.776;22.638;2023-01-06T05:16:05;0.30;99.90
37158;DHT22;23050;51.776;22.638;2023-01-06T05:18:31;0.40;99.90
37158;DHT22;23050;51.776;22.638;2023-01-06T05:20:56;0.30;99.90
37158;DHT22;23050;51.776;22.638;2023-01-06T05:23:22;0.30;99.90
37158;DHT22;23050;51.776;22.638;2023-01-06T05:25:50;0.30;99.90
37158;DHT22;23050;51.776;22.638;2023-01-06T05:28:17;0.30;99.90
37158;DHT22;23050;51.776;22.638;2023-01-06T05:30:42;0.30;99.90
37158;DHT22;23050;51.776;22.638;2023-01-06T05:33:08;0.30;99.90
37158;DHT22;23050;51.776;22.638;2023-01-06T05:35:33;0.30;99.90
37158;DHT22;23050;51.776;22.638;2023-01-06T05:37:59;0.30;99.90
37158;DHT22;23050;51.776;22.638;2023-01-06T05:40:24;0.30;99.90
37158;DHT22;23050;51.776;22.638;2023-01-06T05:42:53;0.30;99.90
37158;DHT22;23050;51.776;22.638;2023-01-06T05:45:20;0.30;99.90
37158;DHT22;23050;51.776;22.638;2023-01-06T05:47:46;0.30;99.90
37158;DHT22;23050;51.776;22.638;2023-01-06T05:50:11;0.30;99.90
37158;DHT22;23050;51.776;22.638;2023-01-06T05:52:37;0.30;99.90
37158;DHT22;23050;51.776;22.638;2023-01-06T05:55:03;0.30;99.90
37158;DHT22;23050;51.776;22.638;2023-01-06T05:57:31;0.30;99.90
37158;DHT22;23050;51.776;22.638;2023-01-06T05:59:57;0.30;99.90
37158;DHT22;23050;51.776;22.638;2023-01-06T06:02:22;0.30;99.90
37158;DHT22;23050;51.776;22.638;2023-01-06T06:04:48;0.30;99.90
37158;DHT22;23050;51.776;22.638;2023-01-06T06:07:14;0.40;99.90
37158;DHT22;23050;51.776;22.638;2023-01-06T06:09:39;0.40;99.90
37158;DHT22;23050;51.776;22.638;2023-01-06T06:12:05;0.40;99.90
37158;DHT22;23050;51.776;22.638;2023-01-06T06:14:31;0.40;99.90
37158;DHT22;23050;51.776;22.638;2023-01-06T06:16:57;0.40;99.90
37158;DHT22;23050;51.776;22.638;2023-01-06T06:19:22;0.40;99.90
37158;DHT22;23050;51.776;22.638;2023-01-06T06:21:48;0.30;99.90
37158;DHT22;23050;51.776;22.638;2023-01-06T06:24:14;0.30;99.90
37158;DHT22;23050;51.776;22.638;2023-01-06T06:26:39;0.30;99.90
37158;DHT22;23050;51.776;22.638;2023-01-06T06:29:06;0.20;99.90
37158;DHT22;23050;51.776;22.638;2023-01-06T06:31:32;0.30;99.90
37158;DHT22;23050;51.776;22.638;2023-01-06T06:33:59;0.30;99.90
37158;DHT22;23050;51.776;22.638;2023-01-06T06:36:25;0.30;99.90
37158;DHT22;23050;51.776;22.638;2023-01-06T06:38:52;0.30;99.90
37158;DHT22;23050;51.776;22.638;2023-01-06T06:41:20;0.30;99.90
37158;DHT22;23050;51.776;22.638;2023-01-06T06:43:47;0.30;99.90
37158;DHT22;23050;51.776;22.638;2023-01-06T06:46:13;0.30;99.90
37158;DHT22;23050;51.776;22.638;2023-01-06T06:48:39;0.30;99.90
37158;DHT22;23050;51.776;22.638;2023-01-06T06:51:12;0.20;99.90
37158;DHT22;23050;51.776;22.638;2023-01-06T06:53:39;0.30;99.90
37158;DHT22;23050;51.776;22.638;2023-01-06T06:56:07;0.20;99.90
37158;DHT22;23050;51.776;22.638;2023-01-06T06:58:33;0.20;99.90
37158;DHT22;23050;51.776;22.638;2023-01-06T07:03:30;0.30;99.90
37158;DHT22;23050;51.776;22.638;2023-01-06T07:05:56;0.20;99.90
37158;DHT22;23050;51.776;22.638;2023-01-06T07:08:22;0.20;99.90
37158;DHT22;23050;51.776;22.638;2023-01-06T07:10:47;0.10;99.90
37158;DHT22;23050;51.776;22.638;2023-01-06T07:13:13;0.20;99.90
37158;DHT22;23050;51.776;22.638;2023-01-06T07:15:39;0.10;99.90
37158;DHT22;23050;51.776;22.638;2023-01-06T07:18:05;0.20;99.90
37158;DHT22;23050;51.776;22.638;2023-01-06T07:20:32;0.10;99.90
37158;DHT22;23050;51.776;22.638;2023-01-06T07:22:58;0.10;99.90
37158;DHT22;23050;51.776;22.638;2023-01-06T07:25:24;0.00;99.90
37158;DHT22;23050;51.776;22.638;2023-01-06T07:27:53;0.00;99.90
37158;DHT22;23050;51.776;22.638;2023-01-06T07:30:20;0.10;99.90
37158;DHT22;23050;51.776;22.638;2023-01-06T07:32:45;0.00;99.90
37158;DHT22;23050;51.776;22.638;2023-01-06T07:35:11;0.00;99.90
37158;DHT22;23050;51.776;22.638;2023-01-06T07:37:37;0.10;99.90
37158;DHT22;23050;51.776;22.638;2023-01-06T07:40:02;0.10;99.90
37158;DHT22;23050;51.776;22.638;2023-01-06T07:42:28;0.10;99.90
37158;DHT22;23050;51.776;22.638;2023-01-06T07:44:54;0.10;99.90
37158;DHT22;23050;51.776;22.638;2023-01-06T07:47:19;0.10;99.90
37158;DHT22;23050;51.776;22.638;2023-01-06T07:49:46;0.20;99.90
37158;DHT22;23050;51.776;22.638;2023-01-06T07:52:12;0.20;99.90
37158;DHT22;23050;51.776;22.638;2023-01-06T07:54:37;0.20;99.90
37158;DHT22;23050;51.776;22.638;2023-01-06T07:57:03;0.20;99.90
37158;DHT22;23050;51.776;22.638;2023-01-06T07:59:28;0.20;99.90
37158;DHT22;23050;51.776;22.638;2023-01-06T08:01:54;0.20;99.90
37158;DHT22;23050;51.776;22.638;2023-01-06T08:04:19;0.30;99.90
37158;DHT22;23050;51.776;22.638;2023-01-06T08:06:45;0.20;99.90
37158;DHT22;23050;51.776;22.638;2023-01-06T08:09:11;0.30;99.90
37158;DHT22;23050;51.776;22.638;2023-01-06T08:11:36;0.20;99.90
37158;DHT22;23050;51.776;22.638;2023-01-06T08:14:02;0.30;99.90
37158;DHT22;23050;51.776;22.638;2023-01-06T08:16:27;0.30;99.90
37158;DHT22;23050;51.776;22.638;2023-01-06T08:18:53;0.30;99.90
37158;DHT22;23050;51.776;22.638;2023-01-06T08:21:18;0.30;99.90
37158;DHT22;23050;51.776;22.638;2023-01-06T08:23:44;0.30;99.90
37158;DHT22;23050;51.776;22.638;2023-01-06T08:26:12;0.30;99.90
37158;DHT22;23050;51.776;22.638;2023-01-06T08:28:42;0.40;99.90
37158;DHT22;23050;51.776;22.638;2023-01-06T08:31:09;0.40;99.90
37158;DHT22;23050;51.776;22.638;2023-01-06T08:33:35;0.40;99.90
37158;DHT22;23050;51.776;22.638;2023-01-06T08:36:04;0.40;99.90
37158;DHT22;23050;51.776;22.638;2023-01-06T08:38:30;0.40;99.90
37158;DHT22;23050;51.776;22.638;2023-01-06T08:40:56;0.50;99.90
37158;DHT22;23050;51.776;22.638;2023-01-06T08:43:23;0.40;99.90
37158;DHT22;23050;51.776;22.638;2023-01-06T08:45:49;0.50;99.90
37158;DHT22;23050;51.776;22.638;2023-01-06T08:48:16;0.50;99.90
37158;DHT22;23050;51.776;22.638;2023-01-06T08:50:42;0.50;99.90
37158;DHT22;23050;51.776;22.638;2023-01-06T08:53:08;0.60;99.90
37158;DHT22;23050;51.776;22.638;2023-01-06T08:55:37;0.50;99.90
37158;DHT22;23050;51.776;22.638;2023-01-06T08:58:03;0.50;99.90
37158;DHT22;23050;51.776;22.638;2023-01-06T09:00:28;0.50;99.90
37158;DHT22;23050;51.776;22.638;2023-01-06T09:02:54;0.60;99.90
37158;DHT22;23050;51.776;22.638;2023-01-06T09:05:19;0.60;99.90
37158;DHT22;23050;51.776;22.638;2023-01-06T09:07:45;0.60;99.90
37158;DHT22;23050;51.776;22.638;2023-01-06T09:10:10;0.60;99.90
37158;DHT22;23050;51.776;22.638;2023-01-06T09:12:37;0.60;99.90
37158;DHT22;23050;51.776;22.638;2023-01-06T09:15:04;0.60;99.90
37158;DHT22;23050;51.776;22.638;2023-01-06T09:17:30;0.60;99.90
37158;DHT22;23050;51.776;22.638;2023-01-06T09:19:55;0.60;99.90
37158;DHT22;23050;51.776;22.638;2023-01-06T09:22:21;0.60;99.90
37158;DHT22;23050;51.776;22.638;2023-01-06T09:24:47;0.60;99.90
37158;DHT22;23050;51.776;22.638;2023-01-06T09:27:12;0.50;99.90
37158;DHT22;23050;51.776;22.638;2023-01-06T09:29:38;0.50;99.90
37158;DHT22;23050;51.776;22.638;2023-01-06T09:32:04;0.60;99.90
37158;DHT22;23050;51.776;22.638;2023-01-06T09:34:29;0.60;99.90
37158;DHT22;23050;51.776;22.638;2023-01-06T09:36:55;0.60;99.90
37158;DHT22;23050;51.776;22.638;2023-01-06T09:39:21;0.60;99.90
37158;DHT22;23050;51.776;22.638;2023-01-06T09:44:49;0.60;99.90
37158;DHT22;23050;51.776;22.638;2023-01-06T09:47:22;0.60;99.90
37158;DHT22;23050;51.776;22.638;2023-01-06T09:52:48;0.70;99.90
37158;DHT22;23050;51.776;22.638;2023-01-06T09:55:41;0.80;99.90
37158;DHT22;23050;51.776;22.638;2023-01-06T09:58:12;0.90;99.90
37158;DHT22;23050;51.776;22.638;2023-01-06T10:03:15;1.00;99.90
37158;DHT22;23050;51.776;22.638;2023-01-06T10:06:06;1.00;99.90
37158;DHT22;23050;51.776;22.638;2023-01-06T10:08:49;1.10;99.90
37158;DHT22;23050;51.776;22.638;2023-01-06T10:17:36;1.30;99.90
37158;DHT22;23050;51.776;22.638;2023-01-06T10:20:33;1.30;99.90
37158;DHT22;23050;51.776;22.638;2023-01-06T10:26:43;1.30;99.90
37158;DHT22;23050;51.776;22.638;2023-01-06T10:28:46;1.40;99.90
37158;DHT22;23050;51.776;22.638;2023-01-06T10:31:25;1.40;99.90
37158;DHT22;23050;51.776;22.638;2023-01-06T10:33:53;1.40;99.90
37158;DHT22;23050;51.776;22.638;2023-01-06T10:36:34;1.40;99.90
37158;DHT22;23050;51.776;22.638;2023-01-06T10:39:08;1.40;99.90
37158;DHT22;23050;51.776;22.638;2023-01-06T10:44:03;1.50;99.90
37158;DHT22;23050;51.776;22.638;2023-01-06T10:46:33;1.50;99.90
37158;DHT22;23050;51.776;22.638;2023-01-06T10:49:04;1.50;99.90
37158;DHT22;23050;51.776;22.638;2023-01-06T10:51:40;1.60;99.90
37158;DHT22;23050;51.776;22.638;2023-01-06T10:54:12;1.60;99.90
37158;DHT22;23050;51.776;22.638;2023-01-06T10:56:44;1.60;99.90
37158;DHT22;23050;51.776;22.638;2023-01-06T10:59:12;1.50;99.90
37158;DHT22;23050;51.776;22.638;2023-01-06T11:01:50;1.60;99.90
37158;DHT22;23050;51.776;22.638;2023-01-06T11:04:16;1.60;99.90
37158;DHT22;23050;51.776;22.638;2023-01-06T11:06:43;1.70;99.90
37158;DHT22;23050;51.776;22.638;2023-01-06T11:11:51;1.50;99.90
37158;DHT22;23050;51.776;22.638;2023-01-06T11:14:20;1.50;99.90
37158;DHT22;23050;51.776;22.638;2023-01-06T11:17:01;1.50;99.90
37158;DHT22;23050;51.776;22.638;2023-01-06T11:19:34;1.50;99.90
37158;DHT22;23050;51.776;22.638;2023-01-06T11:22:00;1.60;99.90
37158;DHT22;23050;51.776;22.638;2023-01-06T11:24:27;1.50;99.90
37158;DHT22;23050;51.776;22.638;2023-01-06T11:32:00;1.60;99.80
37158;DHT22;23050;51.776;22.638;2023-01-06T11:34:26;1.60;99.90
37158;DHT22;23050;51.776;22.638;2023-01-06T11:36:55;1.60;99.90
37158;DHT22;23050;51.776;22.638;2023-01-06T11:39:30;1.60;99.90
37158;DHT22;23050;51.776;22.638;2023-01-06T11:42:12;1.40;99.10
37158;DHT22;23050;51.776;22.638;2023-01-06T11:44:41;1.30;99.90
37158;DHT22;23050;51.776;22.638;2023-01-06T11:47:15;1.30;99.90
37158;DHT22;23050;51.776;22.638;2023-01-06T11:54:43;1.20;99.90
37158;DHT22;23050;51.776;22.638;2023-01-06T12:06:17;1.20;99.90
37158;DHT22;23050;51.776;22.638;2023-01-06T12:11:50;1.10;99.90
37158;DHT22;23050;51.776;22.638;2023-01-06T12:14:24;1.10;99.90
37158;DHT22;23050;51.776;22.638;2023-01-06T12:17:11;1.10;99.90
37158;DHT22;23050;51.776;22.638;2023-01-06T12:19:48;1.00;99.90
37158;DHT22;23050;51.776;22.638;2023-01-06T12:22:33;1.10;99.90
37158;DHT22;23050;51.776;22.638;2023-01-06T12:25:02;1.10;99.90
37158;DHT22;23050;51.776;22.638;2023-01-06T12:27:41;1.20;99.90
37158;DHT22;23050;51.776;22.638;2023-01-06T12:30:16;1.20;99.90
37158;DHT22;23050;51.776;22.638;2023-01-06T12:32:46;1.20;99.90
37158;DHT22;23050;51.776;22.638;2023-01-06T12:35:17;1.20;99.90
37158;DHT22;23050;51.776;22.638;2023-01-06T12:37:48;1.20;99.90
37158;DHT22;23050;51.776;22.638;2023-01-06T12:46:10;1.20;99.90
37158;DHT22;23050;51.776;22.638;2023-01-06T12:48:42;1.20;99.90
37158;DHT22;23050;51.776;22.638;2023-01-06T13:05:37;1.30;99.90
37158;DHT22;23050;51.776;22.638;2023-01-06T13:08:19;1.20;99.90
37158;DHT22;23050;51.776;22.638;2023-01-06T13:19:33;1.20;99.90
37158;DHT22;23050;51.776;22.638;2023-01-06T13:22:03;1.20;99.90
37158;DHT22;23050;51.776;22.638;2023-01-06T13:24:58;1.20;99.90
37158;DHT22;23050;51.776;22.638;2023-01-06T13:27:49;1.20;99.90
37158;DHT22;23050;51.776;22.638;2023-01-06T13:38:59;1.10;99.90
37158;DHT22;23050;51.776;22.638;2023-01-06T13:41:35;1.00;99.90
37158;DHT22;23050;51.776;22.638;2023-01-06T13:44:02;1.00;99.90
37158;DHT22;23050;51.776;22.638;2023-01-06T13:46:29;0.90;99.90
37158;DHT22;23050;51.776;22.638;2023-01-06T13:48:59;0.80;99.90
37158;DHT22;23050;51.776;22.638;2023-01-06T13:51:31;0.70;99.90
37158;DHT22;23050;51.776;22.638;2023-01-06T13:53:57;0.70;99.90
37158;DHT22;23050;51.776;22.638;2023-01-06T13:56:30;0.70;99.90
37158;DHT22;23050;51.776;22.638;2023-01-06T13:59:28;0.70;99.90
37158;DHT22;23050;51.776;22.638;2023-01-06T14:01:54;0.60;99.90
37158;DHT22;23050;51.776;22.638;2023-01-06T14:07:01;0.50;99.90
37158;DHT22;23050;51.776;22.638;2023-01-06T14:09:27;0.50;99.90
37158;DHT22;23050;51.776;22.638;2023-01-06T14:12:15;0.50;99.90
37158;DHT22;23050;51.776;22.638;2023-01-06T14:14:41;0.40;99.90
37158;DHT22;23050;51.776;22.638;2023-01-06T14:17:41;0.40;99.90
37158;DHT22;23050;51.776;22.638;2023-01-06T14:20:36;0.40;99.90
37158;DHT22;23050;51.776;22.638;2023-01-06T14:23:03;0.40;99.90
37158;DHT22;23050;51.776;22.638;2023-01-06T14:25:34;0.40;99.90
37158;DHT22;23050;51.776;22.638;2023-01-06T14:30:33;0.30;99.90
37158;DHT22;23050;51.776;22.638;2023-01-06T14:36:14;0.30;99.90
37158;DHT22;23050;51.776;22.638;2023-01-06T14:38:43;0.20;99.90
37158;DHT22;23050;51.776;22.638;2023-01-06T14:44:01;0.20;99.90
37158;DHT22;23050;51.776;22.638;2023-01-06T14:46:37;0.20;99.90
37158;DHT22;23050;51.776;22.638;2023-01-06T14:49:05;0.20;99.90
37158;DHT22;23050;51.776;22.638;2023-01-06T14:51:40;0.10;99.90
37158;DHT22;23050;51.776;22.638;2023-01-06T14:54:30;0.10;99.90
37158;DHT22;23050;51.776;22.638;2023-01-06T14:56:59;0.10;99.90
37158;DHT22;23050;51.776;22.638;2023-01-06T14:59:26;0.10;99.90
37158;DHT22;23050;51.776;22.638;2023-01-06T15:02:20;0.10;99.90
37158;DHT22;23050;51.776;22.638;2023-01-06T15:04:53;0.10;99.90
37158;DHT22;23050;51.776;22.638;2023-01-06T15:07:21;0.10;99.90
37158;DHT22;23050;51.776;22.638;2023-01-06T15:09:48;0.10;99.90
37158;DHT22;23050;51.776;22.638;2023-01-06T15:12:35;0.10;99.90
37158;DHT22;23050;51.776;22.638;2023-01-06T15:15:22;0.10;99.90
37158;DHT22;23050;51.776;22.638;2023-01-06T15:17:50;0.10;99.90
37158;DHT22;23050;51.776;22.638;2023-01-06T15:20:17;0.10;99.90
37158;DHT22;23050;51.776;22.638;2023-01-06T15:22:50;0.10;99.90
37158;DHT22;23050;51.776;22.638;2023-01-06T15:25:21;0.10;99.90
37158;DHT22;23050;51.776;22.638;2023-01-06T15:27:48;0.10;99.90
37158;DHT22;23050;51.776;22.638;2023-01-06T15:30:15;0.10;99.90
37158;DHT22;23050;51.776;22.638;2023-01-06T15:32:42;0.10;99.90
37158;DHT22;23050;51.776;22.638;2023-01-06T15:35:11;0.10;99.90
37158;DHT22;23050;51.776;22.638;2023-01-06T15:37:39;0.20;99.90
37158;DHT22;23050;51.776;22.638;2023-01-06T15:40:07;0.10;99.90
37158;DHT22;23050;51.776;22.638;2023-01-06T15:42:32;0.10;99.90
37158;DHT22;23050;51.776;22.638;2023-01-06T15:45:01;0.10;99.90
37158;DHT22;23050;51.776;22.638;2023-01-06T15:47:37;0.10;99.90
37158;DHT22;23050;51.776;22.638;2023-01-06T15:50:07;0.10;99.90
37158;DHT22;23050;51.776;22.638;2023-01-06T15:55:05;0.10;99.90
37158;DHT22;23050;51.776;22.638;2023-01-06T15:57:38;0.10;99.90
37158;DHT22;23050;51.776;22.638;2023-01-06T16:00:05;0.10;99.90
37158;DHT22;23050;51.776;22.638;2023-01-06T16:02:31;0.10;99.90
37158;DHT22;23050;51.776;22.638;2023-01-06T16:04:58;0.10;99.90
37158;DHT22;23050;51.776;22.638;2023-01-06T16:10:33;0.10;99.90
37158;DHT22;23050;51.776;22.638;2023-01-06T16:15:55;0.00;99.90
37158;DHT22;23050;51.776;22.638;2023-01-06T16:18:26;0.00;99.90
37158;DHT22;23050;51.776;22.638;2023-01-06T16:20:52;0.00;99.90
37158;DHT22;23050;51.776;22.638;2023-01-06T16:23:37;0.00;99.90
37158;DHT22;23050;51.776;22.638;2023-01-06T16:26:21;0.00;99.90
37158;DHT22;23050;51.776;22.638;2023-01-06T16:28:53;0.00;99.90
37158;DHT22;23050;51.776;22.638;2023-01-06T16:31:29;0.00;99.90
37158;DHT22;23050;51.776;22.638;2023-01-06T16:36:49;0.00;99.90
37158;DHT22;23050;51.776;22.638;2023-01-06T16:39:15;0.00;99.90
37158;DHT22;23050;51.776;22.638;2023-01-06T16:46:50;0.00;99.90
37158;DHT22;23050;51.776;22.638;2023-01-06T16:49:16;0.00;99.90
37158;DHT22;23050;51.776;22.638;2023-01-06T16:51:43;0.00;99.90
37158;DHT22;23050;51.776;22.638;2023-01-06T16:54:09;0.00;99.90
37158;DHT22;23050;51.776;22.638;2023-01-06T16:56:37;0.00;99.90
37158;DHT22;23050;51.776;22.638;2023-01-06T16:59:14;0.00;99.90
37158;DHT22;23050;51.776;22.638;2023-01-06T17:01:46;0.10;99.90
37158;DHT22;23050;51.776;22.638;2023-01-06T17:04:13;0.00;99.90
37158;DHT22;23050;51.776;22.638;2023-01-06T17:06:43;0.00;99.90
37158;DHT22;23050;51.776;22.638;2023-01-06T17:09:21;0.10;99.90
37158;DHT22;23050;51.776;22.638;2023-01-06T17:11:50;0.10;99.90
37158;DHT22;23050;51.776;22.638;2023-01-06T17:14:19;0.10;99.90
37158;DHT22;23050;51.776;22.638;2023-01-06T17:16:45;0.10;99.90
37158;DHT22;23050;51.776;22.638;2023-01-06T17:19:17;0.10;99.90
37158;DHT22;23050;51.776;22.638;2023-01-06T17:21:50;0.10;99.90
37158;DHT22;23050;51.776;22.638;2023-01-06T17:24:24;0.10;99.90
37158;DHT22;23050;51.776;22.638;2023-01-06T17:27:23;0.10;99.90
37158;DHT22;23050;51.776;22.638;2023-01-06T17:29:49;0.10;99.90
37158;DHT22;23050;51.776;22.638;2023-01-06T17:32:20;0.10;99.90
37158;DHT22;23050;51.776;22.638;2023-01-06T17:34:46;0.10;99.90
37158;DHT22;23050;51.776;22.638;2023-01-06T17:37:18;0.10;99.90
37158;DHT22;23050;51.776;22.638;2023-01-06T17:39:46;0.10;99.90
37158;DHT22;23050;51.776;22.638;2023-01-06T17:44:56;0.10;99.90
37158;DHT22;23050;51.776;22.638;2023-01-06T17:47:25;0.10;99.90
37158;DHT22;23050;51.776;22.638;2023-01-06T17:49:56;0.10;99.90
37158;DHT22;23050;51.776;22.638;2023-01-06T17:55:10;0.10;99.90
37158;DHT22;23050;51.776;22.638;2023-01-06T17:57:57;0.00;99.90
37158;DHT22;23050;51.776;22.638;2023-01-06T18:00:28;0.10;99.90
37158;DHT22;23050;51.776;22.638;2023-01-06T18:03:01;0.10;99.90
37158;DHT22;23050;51.776;22.638;2023-01-06T18:10:37;0.00;99.90
37158;DHT22;23050;51.776;22.638;2023-01-06T18:15:39;0.00;99.90
37158;DHT22;23050;51.776;22.638;2023-01-06T18:18:18;0.00;99.90
37158;DHT22;23050;51.776;22.638;2023-01-06T18:23:44;0.00;99.90
37158;DHT22;23050;51.776;22.638;2023-01-06T18:28:51;0.00;99.90
37158;DHT22;23050;51.776;22.638;2023-01-06T18:31:21;0.00;99.90